createdAt,value
2018-07-04T00:00:58.462Z,46.69
2018-07-04T00:03:38.149Z,47.41
2018-07-04T00:06:18.098Z,47.22
2018-07-04T00:08:57.797Z,47.41
2018-07-04T00:11:37.555Z,47.67
2018-07-04T00:14:17.238Z,47.95
2018-07-04T00:16:57.017Z,47.69
2018-07-04T00:19:36.777Z,47.77
2018-07-04T00:22:16.689Z,47.58
2018-07-04T00:24:56.597Z,48.77
2018-07-04T00:27:37.067Z,48.35
2018-07-04T00:30:16.911Z,48.17
2018-07-04T00:32:56.737Z,47.90
2018-07-04T00:35:36.591Z,48.29
2018-07-04T00:38:16.355Z,48.10
2018-07-04T00:40:56.218Z,48.08
2018-07-04T00:43:36.153Z,48.19
2018-07-04T00:46:15.922Z,48.16
2018-07-04T00:48:55.806Z,48.37
2018-07-04T00:51:35.699Z,48.59
2018-07-04T00:54:15.626Z,48.79
2018-07-04T00:56:55.419Z,48.73
2018-07-04T00:59:35.351Z,48.56
2018-07-04T01:02:15.275Z,48.10
2018-07-04T01:04:55.048Z,47.69
2018-07-04T01:07:34.969Z,47.34
2018-07-04T01:10:14.942Z,47.31
2018-07-04T01:12:54.741Z,47.21
2018-07-04T01:15:34.590Z,47.33
2018-07-04T01:18:14.497Z,46.94
2018-07-04T01:20:59.559Z,46.70
2018-07-04T01:23:39.378Z,46.72
2018-07-04T01:26:19.426Z,46.86
2018-07-04T01:28:59.188Z,46.97
2018-07-04T01:31:39.101Z,46.60
2018-07-04T01:34:18.988Z,47.38
2018-07-04T01:36:59.020Z,47.05
2018-07-04T01:39:38.886Z,46.59
2018-07-04T01:42:18.817Z,47.14
2018-07-04T01:44:58.599Z,46.96
2018-07-04T01:47:38.609Z,47.27
2018-07-04T01:50:18.622Z,46.99
2018-07-04T01:52:58.576Z,47.45
2018-07-04T01:55:38.477Z,47.96
2018-07-04T01:58:18.418Z,48.40
2018-07-04T02:00:57.937Z,49.73
2018-07-04T02:03:37.961Z,49.84
2018-07-04T02:06:17.631Z,50.48
2018-07-04T02:08:57.344Z,50.78
2018-07-04T02:11:37.112Z,51.29
2018-07-04T02:14:16.690Z,51.35
2018-07-04T02:16:56.598Z,51.75
2018-07-04T02:19:36.362Z,51.55
2018-07-04T02:22:16.201Z,51.86
2018-07-04T02:24:56.128Z,52.31
2018-07-04T02:27:35.889Z,53.04
2018-07-04T02:30:15.634Z,53.04
2018-07-04T02:32:55.675Z,52.84
2018-07-04T02:35:35.631Z,53.15
2018-07-04T02:38:15.422Z,53.16
2018-07-04T02:40:55.454Z,53.16
2018-07-04T02:43:35.302Z,52.93
2018-07-04T02:46:19.188Z,52.10
2018-07-04T02:48:59.110Z,51.66
2018-07-04T02:51:38.825Z,52.17
2018-07-04T02:54:18.805Z,51.90
2018-07-04T02:56:58.671Z,51.63
2018-07-04T02:59:38.535Z,51.77
2018-07-04T03:02:18.431Z,51.54
2018-07-04T03:04:58.291Z,51.57
2018-07-04T03:07:37.943Z,51.84
2018-07-04T03:10:17.854Z,51.83
2018-07-04T03:12:57.698Z,51.60
2018-07-04T03:15:37.564Z,51.53
2018-07-04T03:18:17.225Z,51.14
2018-07-04T03:20:56.955Z,51.92
2018-07-04T03:23:36.645Z,52.88
2018-07-04T03:26:16.556Z,53.20
2018-07-04T03:28:56.495Z,54.97
2018-07-04T03:31:36.558Z,55.67
2018-07-04T03:34:16.588Z,55.88
2018-07-04T03:36:56.321Z,55.92
2018-07-04T03:39:36.003Z,55.93
2018-07-04T03:42:15.525Z,55.97
2018-07-04T03:44:55.525Z,55.85
2018-07-04T03:47:35.499Z,55.93
2018-07-04T03:50:15.558Z,55.56
2018-07-04T03:52:55.627Z,55.10
2018-07-04T03:55:35.474Z,54.87
2018-07-04T03:58:15.388Z,55.06
2018-07-04T04:00:55.336Z,54.94
2018-07-04T04:03:35.402Z,55.13
2018-07-04T04:06:15.218Z,55.13
2018-07-04T04:08:55.006Z,55.04
2018-07-04T04:11:35.094Z,55.28
2018-07-04T04:14:14.739Z,54.97
2018-07-04T04:16:54.661Z,54.62
2018-07-04T04:19:35.319Z,54.11
2018-07-04T04:22:16.189Z,53.37
2018-07-04T04:24:56.129Z,52.75
2018-07-04T04:27:36.051Z,52.32
2018-07-04T04:30:15.775Z,52.63
2018-07-04T04:32:55.674Z,52.22
2018-07-04T04:35:35.731Z,52.70
2018-07-04T04:38:15.570Z,52.67
2018-07-04T04:40:55.469Z,52.73
2018-07-04T04:43:35.291Z,52.56
2018-07-04T04:46:15.018Z,52.48
2018-07-04T04:48:54.687Z,52.41
2018-07-04T04:51:34.453Z,51.91
2018-07-04T04:54:14.420Z,52.15
2018-07-04T04:56:55.059Z,51.88
2018-07-04T04:59:34.958Z,52.33
2018-07-04T05:02:15.046Z,51.69
2018-07-04T05:04:54.857Z,50.99
2018-07-04T05:07:34.725Z,51.46
2018-07-04T05:10:14.446Z,51.23
2018-07-04T05:12:54.329Z,50.96
2018-07-04T05:15:34.225Z,51.09
2018-07-04T05:18:14.116Z,50.73
2018-07-04T05:20:53.945Z,50.68
2018-07-04T05:23:33.809Z,51.02
2018-07-04T05:26:13.966Z,50.90
2018-07-04T05:28:54.015Z,50.91
2018-07-04T05:31:33.809Z,51.09
2018-07-04T05:34:13.710Z,51.50
2018-07-04T05:36:53.461Z,51.19
2018-07-04T05:39:33.286Z,51.49
2018-07-04T05:42:13.011Z,51.32
2018-07-04T05:44:52.853Z,51.87
2018-07-04T05:47:32.590Z,52.58
2018-07-04T05:50:12.244Z,52.80
2018-07-04T05:52:52.216Z,53.27
2018-07-04T05:55:32.009Z,54.80
2018-07-04T05:58:12.100Z,54.50
2018-07-04T06:00:52.073Z,53.79
2018-07-04T06:03:31.867Z,53.61
2018-07-04T06:06:12.122Z,53.88
2018-07-04T06:08:52.285Z,53.42
2018-07-04T06:11:31.946Z,53.47
2018-07-04T06:14:11.758Z,53.40
2018-07-04T06:16:51.677Z,53.87
2018-07-04T06:19:31.513Z,53.35
2018-07-04T06:22:11.449Z,52.52
2018-07-04T06:24:51.206Z,52.97
2018-07-04T06:27:31.154Z,53.03
2018-07-04T06:30:11.283Z,50.52
2018-07-04T06:32:51.135Z,52.48
2018-07-04T06:35:30.964Z,52.28
2018-07-04T06:37:58.415Z,51.98
2018-07-04T06:40:25.899Z,51.89
2018-07-04T06:42:53.553Z,51.42
2018-07-04T06:45:21.047Z,52.00
2018-07-04T06:47:48.602Z,51.42
2018-07-04T06:50:16.263Z,51.00
2018-07-04T06:52:43.727Z,51.54
2018-07-04T06:55:11.308Z,51.42
2018-07-04T06:57:38.918Z,51.21
2018-07-04T07:00:06.498Z,51.85
2018-07-04T07:02:34.109Z,50.65
2018-07-04T07:05:14.042Z,53.39
2018-07-04T07:07:54.175Z,53.61
2018-07-04T07:10:34.492Z,53.08
2018-07-04T07:13:14.363Z,52.17
2018-07-04T07:15:54.371Z,51.19
2018-07-04T07:18:34.068Z,51.96
2018-07-04T07:21:13.886Z,51.79
2018-07-04T07:23:53.613Z,51.97
2018-07-04T07:26:33.451Z,50.98
2018-07-04T07:29:13.365Z,51.10
2018-07-04T07:31:53.429Z,49.63
2018-07-04T07:34:33.141Z,50.33
2018-07-04T07:37:13.222Z,49.68
2018-07-04T07:39:53.058Z,50.09
2018-07-04T07:42:32.804Z,50.07
2018-07-04T07:45:12.825Z,49.48
2018-07-04T07:47:52.766Z,49.78
2018-07-04T07:50:32.545Z,45.83
2018-07-04T07:53:12.487Z,49.46
2018-07-04T07:55:52.542Z,49.62
2018-07-04T07:58:32.511Z,48.84
2018-07-04T08:01:12.208Z,48.85
2018-07-04T08:03:51.912Z,48.70
2018-07-04T08:06:31.734Z,47.90
2018-07-04T08:09:12.170Z,47.85
2018-07-04T08:11:51.772Z,44.10
2018-07-04T08:14:31.448Z,45.92
2018-07-04T08:17:11.304Z,45.49
2018-07-04T08:19:51.609Z,45.03
2018-07-04T08:22:31.444Z,46.20
2018-07-04T08:25:11.299Z,46.15
2018-07-04T08:27:51.366Z,45.69
2018-07-04T08:30:31.155Z,45.29
2018-07-04T08:33:11.097Z,45.04
2018-07-04T08:35:50.873Z,45.77
2018-07-04T08:38:30.733Z,47.85
2018-07-04T08:41:11.603Z,47.61
2018-07-04T08:43:51.514Z,45.49
2018-07-04T08:46:31.834Z,48.23
2018-07-04T08:49:11.732Z,48.82
2018-07-04T08:51:51.715Z,48.03
2018-07-04T08:54:31.485Z,47.37
2018-07-04T08:57:11.316Z,47.28
2018-07-04T08:59:51.238Z,46.54
2018-07-04T09:02:31.381Z,46.47
2018-07-04T09:05:11.348Z,44.79
2018-07-04T09:07:51.204Z,45.58
2018-07-04T09:10:31.243Z,44.62
2018-07-04T09:13:11.071Z,41.15
2018-07-04T09:15:52.624Z,42.28
2018-07-04T09:18:32.536Z,42.41
2018-07-04T09:21:12.913Z,41.34
2018-07-04T09:23:52.699Z,38.21
2018-07-04T09:26:32.470Z,38.95
2018-07-04T09:29:12.260Z,37.88
2018-07-04T09:31:52.127Z,36.12
2018-07-04T09:34:32.088Z,35.85
2018-07-04T09:37:12.599Z,34.50
2018-07-04T09:39:52.413Z,33.32
2018-07-04T09:42:32.382Z,34.63
2018-07-04T09:45:12.305Z,31.39
2018-07-04T09:47:52.183Z,32.49
2018-07-04T09:50:32.137Z,32.80
2018-07-04T09:53:12.164Z,31.40
2018-07-04T09:55:52.361Z,32.52
2018-07-04T09:58:32.165Z,30.25
2018-07-04T10:01:17.265Z,30.86
2018-07-04T10:03:57.031Z,28.72
2018-07-04T10:06:36.925Z,28.51
2018-07-04T10:09:16.757Z,29.40
2018-07-04T10:11:56.616Z,29.64
2018-07-04T10:14:36.420Z,27.87
2018-07-04T10:17:16.329Z,29.25
2018-07-04T10:19:56.172Z,29.09
2018-07-04T10:22:35.903Z,28.35
2018-07-04T10:25:15.540Z,28.79
2018-07-04T10:27:55.237Z,29.89
2018-07-04T10:30:35.387Z,27.39
2018-07-04T10:33:15.316Z,27.34
2018-07-04T10:35:55.037Z,25.74
2018-07-04T10:38:35.014Z,27.01
2018-07-04T10:41:14.801Z,27.66
2018-07-04T10:43:54.770Z,25.55
2018-07-04T10:46:34.638Z,26.49
2018-07-04T10:49:14.500Z,24.65
2018-07-04T10:51:54.710Z,26.90
2018-07-04T10:54:34.668Z,25.67
2018-07-04T10:57:14.609Z,24.95
2018-07-04T10:59:54.497Z,25.47
2018-07-04T11:02:34.514Z,24.93
2018-07-04T11:05:14.375Z,26.09
2018-07-04T11:07:54.321Z,26.43
2018-07-04T11:10:34.318Z,25.82
2018-07-04T11:13:14.196Z,26.48
2018-07-04T11:15:53.999Z,25.10
2018-07-04T11:18:33.794Z,26.56
2018-07-04T11:21:13.618Z,25.75
2018-07-04T11:23:53.426Z,26.88
2018-07-04T11:26:33.430Z,27.38
2018-07-04T11:29:13.225Z,24.40
2018-07-04T11:31:53.067Z,25.77
2018-07-04T11:34:32.770Z,25.61
2018-07-04T11:37:12.509Z,27.81
2018-07-04T11:39:52.141Z,26.50
2018-07-04T11:42:32.230Z,27.86
2018-07-04T11:45:12.111Z,26.83
2018-07-04T11:47:39.756Z,25.93
2018-07-04T11:50:07.229Z,26.44
2018-07-04T11:52:34.688Z,26.57
2018-07-04T11:55:02.205Z,25.86
2018-07-04T11:57:29.659Z,25.87
2018-07-04T11:59:57.066Z,27.44
2018-07-04T12:02:24.820Z,25.16
2018-07-04T12:05:04.837Z,25.37
2018-07-04T12:07:32.648Z,25.30
2018-07-04T12:10:00.143Z,24.66
2018-07-04T12:12:27.837Z,26.70
2018-07-04T12:14:55.353Z,25.79
2018-07-04T12:17:22.767Z,24.27
2018-07-04T12:19:50.257Z,24.83
2018-07-04T12:22:17.932Z,24.04
2018-07-04T12:24:45.556Z,23.48
2018-07-04T12:27:12.979Z,22.84
2018-07-04T12:29:40.433Z,22.91
2018-07-04T12:32:07.985Z,22.21
2018-07-04T12:34:35.677Z,22.71
2018-07-04T12:37:03.248Z,21.17
2018-07-04T12:39:31.081Z,21.92
2018-07-04T12:41:58.642Z,20.64
2018-07-04T12:44:26.323Z,20.71
2018-07-04T12:46:53.900Z,21.79
2018-07-04T12:49:27.515Z,20.96
2018-07-04T12:51:55.216Z,22.02
2018-07-04T12:54:27.971Z,19.12
2018-07-04T12:57:08.217Z,19.45
2018-07-04T12:59:48.073Z,18.65
2018-07-04T13:02:27.882Z,18.64
2018-07-04T13:05:07.825Z,19.75
2018-07-04T13:07:47.910Z,18.05
2018-07-04T13:10:27.587Z,18.02
2018-07-04T13:13:07.589Z,18.25
2018-07-04T13:15:47.436Z,18.92
2018-07-04T13:18:27.269Z,20.00
2018-07-04T13:21:06.796Z,18.32
2018-07-04T13:23:46.580Z,16.99
2018-07-04T13:26:26.300Z,17.14
2018-07-04T13:29:06.181Z,17.14
2018-07-04T13:31:46.024Z,18.73
2018-07-04T13:34:25.942Z,17.82
2018-07-04T13:37:05.670Z,18.91
2018-07-04T13:39:45.356Z,18.19
2018-07-04T13:42:25.517Z,18.90
2018-07-04T13:45:05.471Z,20.70
2018-07-04T13:47:45.725Z,20.02
2018-07-04T13:50:25.558Z,20.09
2018-07-04T13:53:05.261Z,19.96
2018-07-04T13:55:45.153Z,20.80
2018-07-04T13:58:24.834Z,19.70
2018-07-04T14:01:06.510Z,19.06
2018-07-04T14:03:52.062Z,20.85
2018-07-04T14:06:32.247Z,20.84
2018-07-04T14:09:12.031Z,20.29
2018-07-04T14:11:52.194Z,21.18
2018-07-04T14:14:32.239Z,22.58
2018-07-04T14:17:12.089Z,23.25
2018-07-04T14:19:51.999Z,23.05
2018-07-04T14:22:31.790Z,23.28
2018-07-04T14:25:11.610Z,24.20
2018-07-04T14:27:51.294Z,24.14
2018-07-04T14:30:31.005Z,25.04
2018-07-04T14:33:10.928Z,24.84
2018-07-04T14:35:51.007Z,24.85
2018-07-04T14:38:30.788Z,28.75
2018-07-04T14:41:10.769Z,31.09
2018-07-04T14:43:50.599Z,32.38
2018-07-04T14:46:30.365Z,33.98
2018-07-04T14:49:11.049Z,34.83
2018-07-04T14:51:51.043Z,34.86
2018-07-04T14:54:30.865Z,35.75
2018-07-04T14:57:11.030Z,36.78
2018-07-04T14:59:50.865Z,36.54
2018-07-04T15:02:30.974Z,37.42
2018-07-04T15:05:10.681Z,37.78
2018-07-04T15:07:50.579Z,37.12
2018-07-04T15:10:30.465Z,37.16
2018-07-04T15:13:10.420Z,37.92
2018-07-04T15:15:50.155Z,37.56
2018-07-04T15:18:29.928Z,37.85
2018-07-04T15:21:09.791Z,37.37
2018-07-04T15:23:49.649Z,37.08
2018-07-04T15:26:29.656Z,36.43
2018-07-04T15:29:09.697Z,36.68
2018-07-04T15:31:49.709Z,36.72
2018-07-04T15:34:29.779Z,36.85
2018-07-04T15:37:09.659Z,36.73
2018-07-04T15:39:50.421Z,36.50
2018-07-04T15:42:30.335Z,36.32
2018-07-04T15:45:10.627Z,35.97
2018-07-04T15:47:50.383Z,36.31
2018-07-04T15:50:30.346Z,36.75
2018-07-04T15:53:10.891Z,36.07
2018-07-04T15:55:50.988Z,36.33
2018-07-04T15:58:30.812Z,36.93
2018-07-04T16:01:10.622Z,36.78
2018-07-04T16:03:50.612Z,36.08
2018-07-04T16:06:30.290Z,35.77
2018-07-04T16:09:10.057Z,36.06
2018-07-04T16:11:49.849Z,35.57
2018-07-04T16:14:29.697Z,35.87
2018-07-04T16:17:09.632Z,35.81
2018-07-04T16:19:49.479Z,36.19
2018-07-04T16:22:29.258Z,36.38
2018-07-04T16:25:09.187Z,36.14
2018-07-04T16:27:49.017Z,37.62
2018-07-04T16:30:29.010Z,38.07
2018-07-04T16:33:08.816Z,38.69
2018-07-04T16:35:49.169Z,39.81
2018-07-04T16:38:29.066Z,40.54
2018-07-04T16:41:08.904Z,41.40
2018-07-04T16:43:48.806Z,42.00
2018-07-04T16:46:28.743Z,42.37
2018-07-04T16:49:08.775Z,43.21
2018-07-04T16:51:48.535Z,42.62
2018-07-04T16:54:28.503Z,43.03
2018-07-04T16:57:08.250Z,43.38
2018-07-04T16:59:49.150Z,43.05
2018-07-04T17:02:29.669Z,42.39
2018-07-04T17:05:09.583Z,42.46
2018-07-04T17:07:49.677Z,42.14
2018-07-04T17:10:29.546Z,41.81
2018-07-04T17:13:10.315Z,41.67
2018-07-04T17:15:50.224Z,41.60
2018-07-04T17:18:30.229Z,42.20
2018-07-04T17:21:10.057Z,41.82
2018-07-04T17:23:50.709Z,40.54
2018-07-04T17:26:30.433Z,40.34
2018-07-04T17:29:10.625Z,40.19
2018-07-04T17:31:51.316Z,39.87
2018-07-04T17:34:32.151Z,39.13
2018-07-04T17:37:12.143Z,39.44
2018-07-04T17:39:51.962Z,39.07
2018-07-04T17:42:31.926Z,39.19
2018-07-04T17:45:11.854Z,39.13
2018-07-04T17:47:51.643Z,38.95
2018-07-04T17:50:31.868Z,39.09
2018-07-04T17:53:11.481Z,38.78
2018-07-04T17:55:51.183Z,38.30
2018-07-04T17:58:31.578Z,38.17
2018-07-04T18:01:11.382Z,38.14
2018-07-04T18:03:51.331Z,37.59
2018-07-04T18:06:31.320Z,37.79
2018-07-04T18:09:11.371Z,37.71
2018-07-04T18:11:51.243Z,38.22
2018-07-04T18:14:31.167Z,37.72
2018-07-04T18:17:11.061Z,38.11
2018-07-04T18:19:50.954Z,38.11
2018-07-04T18:22:31.238Z,38.15
2018-07-04T18:25:11.034Z,38.14
2018-07-04T18:27:51.213Z,38.27
2018-07-04T18:30:31.182Z,38.03
2018-07-04T18:33:10.820Z,38.66
2018-07-04T18:35:50.562Z,38.05
2018-07-04T18:38:30.380Z,38.20
2018-07-04T18:41:10.077Z,38.36
2018-07-04T18:43:50.565Z,38.45
2018-07-04T18:46:30.232Z,38.83
2018-07-04T18:49:09.885Z,38.86
2018-07-04T18:51:49.586Z,39.22
2018-07-04T18:54:29.315Z,39.60
2018-07-04T18:57:09.225Z,39.48
2018-07-04T18:59:49.143Z,39.63
2018-07-04T19:02:29.007Z,39.85
2018-07-04T19:05:08.838Z,39.91
2018-07-04T19:07:48.962Z,39.81
2018-07-04T19:10:28.674Z,39.75
2018-07-04T19:13:08.564Z,40.04
2018-07-04T19:15:49.103Z,40.26
2018-07-04T19:18:29.230Z,40.59
2018-07-04T19:21:09.092Z,40.66
2018-07-04T19:23:49.125Z,40.85
2018-07-04T19:26:29.154Z,41.54
2018-07-04T19:29:08.989Z,41.54
2018-07-04T19:31:48.734Z,41.67
2018-07-04T19:34:28.621Z,42.15
2018-07-04T19:37:08.435Z,42.23
2018-07-04T19:39:48.385Z,42.43
2018-07-04T19:42:28.434Z,43.07
2018-07-04T19:45:08.093Z,43.15
2018-07-04T19:47:48.262Z,44.20
2018-07-04T19:50:28.154Z,44.31
2018-07-04T19:53:08.151Z,44.75
2018-07-04T19:55:47.941Z,45.66
2018-07-04T19:58:27.822Z,46.44
2018-07-04T20:01:07.576Z,46.74
2018-07-04T20:03:47.390Z,46.42
2018-07-04T20:06:27.393Z,46.37
2018-07-04T20:09:07.236Z,46.47
2018-07-04T20:11:47.019Z,46.28
2018-07-04T20:14:26.851Z,46.63
2018-07-04T20:17:06.686Z,46.98
2018-07-04T20:19:46.897Z,47.39
2018-07-04T20:22:26.622Z,47.11
2018-07-04T20:25:06.383Z,47.80
2018-07-04T20:27:46.249Z,47.65
2018-07-04T20:30:26.161Z,47.69
2018-07-04T20:33:05.852Z,47.46
2018-07-04T20:35:45.484Z,46.88
2018-07-04T20:38:25.398Z,46.91
2018-07-04T20:41:05.415Z,47.41
2018-07-04T20:43:45.245Z,47.68
2018-07-04T20:46:25.016Z,48.06
2018-07-04T20:49:04.895Z,48.05
2018-07-04T20:51:44.793Z,48.05
2018-07-04T20:54:24.783Z,48.95
2018-07-04T20:57:04.515Z,49.18
2018-07-04T20:59:44.382Z,49.54
2018-07-04T21:02:24.345Z,49.98
2018-07-04T21:05:04.100Z,50.27
2018-07-04T21:07:43.902Z,50.75
2018-07-04T21:10:23.880Z,51.19
2018-07-04T21:13:03.662Z,50.86
2018-07-04T21:15:43.405Z,51.38
2018-07-04T21:18:23.458Z,51.67
2018-07-04T21:21:03.227Z,51.77
2018-07-04T21:23:43.336Z,52.53
2018-07-04T21:26:23.325Z,52.46
2018-07-04T21:29:03.108Z,52.60
2018-07-04T21:31:42.921Z,51.52
2018-07-04T21:34:22.736Z,51.49
2018-07-04T21:37:02.614Z,51.51
2018-07-04T21:39:42.385Z,51.69
2018-07-04T21:42:22.571Z,51.53
2018-07-04T21:45:02.664Z,51.76
2018-07-04T21:47:42.674Z,52.84
2018-07-04T21:50:22.609Z,53.05
2018-07-04T21:53:02.487Z,52.96
2018-07-04T21:55:42.429Z,52.97
2018-07-04T21:58:22.154Z,54.21
2018-07-04T22:01:02.052Z,54.01
2018-07-04T22:03:41.639Z,53.53
2018-07-04T22:06:21.355Z,53.70
2018-07-04T22:09:01.270Z,54.50
2018-07-04T22:11:41.287Z,54.66
2018-07-04T22:14:21.301Z,55.24
2018-07-04T22:17:01.086Z,54.71
2018-07-04T22:19:41.008Z,54.73
2018-07-04T22:22:20.901Z,54.59
2018-07-04T22:25:00.643Z,55.12
2018-07-04T22:27:40.486Z,55.30
2018-07-04T22:30:20.089Z,55.26
2018-07-04T22:32:59.927Z,55.73
2018-07-04T22:35:39.693Z,56.01
2018-07-04T22:38:19.566Z,56.02
2018-07-04T22:40:59.382Z,55.78
2018-07-04T22:43:39.154Z,56.08
2018-07-04T22:46:18.976Z,56.02
2018-07-04T22:48:58.915Z,56.30
2018-07-04T22:51:38.674Z,56.90
2018-07-04T22:54:18.634Z,57.08
2018-07-04T22:56:58.574Z,57.73
2018-07-04T22:59:38.441Z,58.90
2018-07-04T23:02:18.387Z,60.11
2018-07-04T23:04:58.134Z,60.35
2018-07-04T23:07:38.129Z,60.43
2018-07-04T23:10:18.054Z,60.44
2018-07-04T23:12:57.967Z,59.93
2018-07-04T23:15:37.793Z,60.15
2018-07-04T23:18:17.680Z,61.06
2018-07-04T23:20:57.910Z,62.32
2018-07-04T23:23:37.667Z,62.18
2018-07-04T23:26:17.450Z,62.74
2018-07-04T23:28:57.253Z,62.62
2018-07-04T23:31:37.098Z,63.54
2018-07-04T23:34:16.872Z,64.02
2018-07-04T23:36:56.736Z,64.61
2018-07-04T23:39:36.510Z,64.10
2018-07-04T23:42:16.273Z,64.12
2018-07-04T23:44:56.045Z,63.97
2018-07-04T23:47:35.913Z,63.73
2018-07-04T23:50:15.588Z,63.65
2018-07-04T23:52:55.263Z,62.28
2018-07-04T23:55:34.973Z,62.88
2018-07-04T23:58:14.765Z,63.11
